Time;durP1;ratioP1;P1;durP2;ratioP2;P2;SDS_P1;SDS_P2;PMS_P1;PMS_P2;Temp;Humidity;BMP_temperature;BMP_pressure;BME280_temperature;BME280_humidity;BME280_pressure;Samples;Min_cycle;Max_cycle;Signal;HPM_P1;HPM_P2
2022/05/29 00:00:46;;;;;;;8.45;1.88;;;12.10;49.40;;;;;;4938943;28;20055;-52
2022/05/29 00:03:14;;;;;;;11.88;1.98;;;12.10;49.40;;;;;;4943422;28;20439;-47
2022/05/29 00:05:44;;;;;;;9.48;2.05;;;12.10;49.40;;;;;;4940619;28;20051;-54
2022/05/29 00:08:15;;;;;;;12.02;2.40;;;12.00;49.40;;;;;;4939047;28;20063;-49
2022/05/29 00:10:43;;;;;;;10.73;1.92;;;12.00;49.40;;;;;;4942048;29;20403;-48
2022/05/29 00:13:12;;;;;;;9.63;2.15;;;12.00;49.50;;;;;;4939663;28;20443;-47
2022/05/29 00:15:40;;;;;;;9.93;1.92;;;12.00;49.50;;;;;;4940980;28;20050;-48
2022/05/29 00:18:09;;;;;;;6.30;1.75;;;12.10;49.50;;;;;;4940240;28;20055;-48
2022/05/29 00:20:37;;;;;;;6.13;1.75;;;12.00;49.60;;;;;;4940006;28;20070;-50
2022/05/29 00:23:06;;;;;;;6.90;1.50;;;12.00;49.70;;;;;;4940435;28;20055;-47
2022/05/29 00:25:34;;;;;;;11.07;1.88;;;12.00;49.70;;;;;;4941489;28;20051;-50
2022/05/29 00:28:02;;;;;;;9.55;2.33;;;12.00;49.70;;;;;;4936381;28;20051;-48
2022/05/29 00:30:29;;;;;;;7.57;1.90;;;12.00;49.70;;;;;;4940600;28;20047;-47
2022/05/29 00:32:56;;;;;;;8.23;1.75;;;12.10;49.70;;;;;;4941571;28;20530;-52
2022/05/29 00:35:24;;;;;;;6.05;1.73;;;12.00;49.80;;;;;;4940466;28;20066;-48
2022/05/29 00:37:51;;;;;;;9.35;1.85;;;12.00;49.80;;;;;;4936195;28;20066;-48
2022/05/29 00:40:32;;;;;;;11.07;1.85;;;12.00;49.80;;;;;;4937096;28;20153;-48
2022/05/29 00:42:59;;;;;;;10.93;2.22;;;12.00;50.20;;;;;;4942612;28;20043;-50
2022/05/29 00:45:29;;;;;;;7.82;1.77;;;12.00;50.00;;;;;;4940919;28;20388;-48
2022/05/29 00:47:57;;;;;;;9.07;1.85;;;11.90;50.10;;;;;;4941853;28;20066;-46
2022/05/29 00:50:25;;;;;;;9.43;2.15;;;12.00;50.10;;;;;;4943303;28;20051;-46
2022/05/29 00:52:53;;;;;;;4.70;1.45;;;11.90;50.10;;;;;;4940463;28;20545;-48
2022/05/29 00:55:29;;;;;;;6.13;2.10;;;12.00;50.20;;;;;;4944091;28;20062;-46
2022/05/29 00:58:01;;;;;;;6.90;1.77;;;12.00;50.90;;;;;;4941245;28;20070;-50
2022/05/29 01:00:30;;;;;;;8.98;2.03;;;12.00;50.40;;;;;;4940710;28;20055;-48
2022/05/29 01:03:00;;;;;;;8.43;2.00;;;12.00;50.50;;;;;;4942342;28;20055;-49
2022/05/29 01:05:30;;;;;;;11.73;1.92;;;12.00;50.50;;;;;;4937432;28;20416;-50
2022/05/29 01:08:01;;;;;;;12.55;2.15;;;12.00;50.60;;;;;;4938534;28;20055;-46
2022/05/29 01:10:55;;;;;;;6.68;1.60;;;11.90;50.80;;;;;;4942553;28;20085;-47
2022/05/29 01:13:31;;;;;;;10.68;2.28;;;11.90;51.00;;;;;;4943177;28;20043;-48
2022/05/29 01:16:13;;;;;;;12.27;2.58;;;11.90;51.00;;;;;;4943768;28;20055;-51
2022/05/29 01:18:48;;;;;;;6.75;2.05;;;11.90;51.10;;;;;;4940737;28;20047;-48
2022/05/29 01:21:35;;;;;;;12.45;2.22;;;11.90;51.10;;;;;;4943152;28;20063;-51
2022/05/29 01:24:22;;;;;;;7.30;1.73;;;11.90;51.20;;;;;;4943378;28;20051;-51
2022/05/29 01:27:20;;;;;;;7.80;1.98;;;11.90;51.20;;;;;;4943353;28;20059;-46
2022/05/29 01:29:57;;;;;;;6.28;1.50;;;11.90;51.50;;;;;;4941858;28;20063;-47
2022/05/29 01:32:36;;;;;;;11.00;1.75;;;11.90;51.50;;;;;;4942584;28;20069;-49
2022/05/29 01:35:10;;;;;;;10.60;1.98;;;11.90;51.40;;;;;;4943376;28;20043;-48
2022/05/29 01:37:46;;;;;;;9.57;2.47;;;11.90;51.50;;;;;;4940891;28;20096;-50
2022/05/29 01:40:23;;;;;;;8.90;2.15;;;11.90;51.60;;;;;;4940781;28;20059;-52
2022/05/29 01:42:54;;;;;;;15.38;3.33;;;11.90;51.50;;;;;;4943150;28;20059;-49
2022/05/29 01:45:31;;;;;;;5.30;1.42;;;11.90;51.60;;;;;;4941729;28;20067;-52
2022/05/29 01:48:05;;;;;;;5.82;1.85;;;11.90;51.60;;;;;;4938894;28;20051;-48
2022/05/29 01:50:38;;;;;;;7.95;1.48;;;11.80;51.60;;;;;;4941690;28;20051;-48
2022/05/29 01:53:12;;;;;;;6.80;1.77;;;11.80;51.60;;;;;;4940417;28;20055;-53
2022/05/29 01:55:44;;;;;;;7.28;1.63;;;11.80;51.80;;;;;;4944024;28;20051;-50
2022/05/29 01:58:17;;;;;;;6.65;1.70;;;11.80;51.80;;;;;;4940168;28;20051;-48
2022/05/29 02:00:48;;;;;;;7.80;2.08;;;11.80;51.90;;;;;;4941155;28;20059;-47
2022/05/29 02:03:19;;;;;;;10.52;1.65;;;11.80;52.10;;;;;;4943999;28;20056;-48
2022/05/29 02:05:50;;;;;;;10.80;1.92;;;11.80;52.10;;;;;;4944895;28;20054;-47
2022/05/29 02:08:19;;;;;;;6.72;1.60;;;11.80;52.10;;;;;;4942913;28;20419;-50
2022/05/29 02:10:51;;;;;;;12.65;1.90;;;11.80;52.10;;;;;;4945191;28;20058;-46
2022/05/29 02:13:25;;;;;;;9.52;2.17;;;11.70;52.10;;;;;;4941422;28;20439;-51
2022/05/29 02:15:58;;;;;;;11.00;2.00;;;11.80;52.30;;;;;;4942086;28;20400;-46
2022/05/29 02:18:34;;;;;;;6.22;1.27;;;11.80;52.40;;;;;;4942554;28;20051;-51
2022/05/29 02:21:07;;;;;;;7.07;2.13;;;11.70;52.50;;;;;;4939601;28;20403;-48
2022/05/29 02:23:38;;;;;;;5.57;1.88;;;11.80;52.60;;;;;;4938977;28;20059;-50
2022/05/29 02:26:08;;;;;;;8.57;2.28;;;11.80;52.50;;;;;;4942357;28;20124;-51
2022/05/29 02:28:39;;;;;;;11.05;2.13;;;11.80;52.50;;;;;;4943369;28;20055;-52
2022/05/29 02:31:19;;;;;;;5.50;1.70;;;11.80;52.50;;;;;;4944348;28;20537;-50
2022/05/29 02:33:57;;;;;;;7.13;1.63;;;11.90;52.50;;;;;;4944148;28;20055;-53
2022/05/29 02:36:36;;;;;;;4.72;1.42;;;11.90;52.50;;;;;;4943932;28;20499;-48
2022/05/29 02:39:26;;;;;;;5.43;1.60;;;11.90;52.40;;;;;;4941082;28;20071;-48
2022/05/29 02:42:05;;;;;;;6.22;1.70;;;12.00;52.60;;;;;;4942383;29;20062;-53
2022/05/29 02:44:41;;;;;;;7.13;2.05;;;12.00;52.50;;;;;;4938236;28;20063;-48
2022/05/29 02:47:24;;;;;;;5.85;1.42;;;12.10;52.50;;;;;;4943351;28;20098;-50
2022/05/29 02:50:15;;;;;;;8.30;1.95;;;12.10;52.30;;;;;;4944428;28;20059;-50
2022/05/29 02:52:42;;;;;;;10.75;2.00;;;12.10;52.40;;;;;;4945888;28;20054;-52
2022/05/29 02:55:10;;;;;;;5.57;1.70;;;12.10;52.30;;;;;;4943895;28;20074;-50
2022/05/29 02:57:37;;;;;;;6.32;1.60;;;12.10;52.20;;;;;;4943493;28;20047;-48
2022/05/29 03:00:11;;;;;;;7.78;1.83;;;12.10;52.20;;;;;;4942143;28;20439;-49
2022/05/29 03:02:51;;;;;;;7.40;2.20;;;12.20;52.30;;;;;;4944253;28;20074;-47
2022/05/29 03:05:28;;;;;;;5.47;1.73;;;12.10;52.30;;;;;;4941740;28;20070;-49
2022/05/29 03:08:31;;;;;;;6.88;1.45;;;12.20;52.50;;;;;;4941584;28;20047;-51
2022/05/29 03:11:08;;;;;;;6.25;1.60;;;12.20;52.60;;;;;;4943251;28;20059;-50
2022/05/29 03:13:48;;;;;;;11.82;2.00;;;12.20;52.50;;;;;;4938792;28;20131;-51
2022/05/29 03:16:26;;;;;;;9.02;2.15;;;12.30;52.60;;;;;;4943385;28;20419;-46
2022/05/29 03:19:02;;;;;;;6.20;1.55;;;12.20;52.80;;;;;;4940661;28;20417;-50
2022/05/29 03:21:37;;;;;;;8.43;2.17;;;12.20;52.80;;;;;;4943346;28;20055;-51
2022/05/29 03:24:16;;;;;;;5.22;2.50;;;12.30;53.00;;;;;;4942649;28;20052;-48
2022/05/29 03:26:51;;;;;;;6.18;1.83;;;12.20;53.00;;;;;;4944112;28;20081;-49
2022/05/29 03:29:26;;;;;;;10.20;2.20;;;12.30;53.00;;;;;;4943338;28;20059;-50
2022/05/29 03:31:55;;;;;;;8.02;2.03;;;12.20;53.00;;;;;;4940293;28;20713;-46
2022/05/29 03:34:24;;;;;;;9.82;1.80;;;12.20;53.00;;;;;;4941160;28;20058;-50
2022/05/29 03:36:52;;;;;;;10.20;2.00;;;12.20;53.00;;;;;;4943967;28;20058;-49
2022/05/29 03:39:21;;;;;;;10.25;1.92;;;12.20;53.10;;;;;;4943081;28;20063;-49
2022/05/29 03:41:50;;;;;;;10.15;2.38;;;12.20;53.20;;;;;;4943974;28;20054;-46
2022/05/29 03:44:21;;;;;;;8.00;2.10;;;12.10;53.20;;;;;;4942469;28;20051;-48
2022/05/29 03:46:48;;;;;;;4.00;1.80;;;12.10;53.30;;;;;;4943586;28;20051;-51
2022/05/29 03:49:17;;;;;;;9.73;1.80;;;12.10;53.40;;;;;;4940140;28;20059;-51
2022/05/29 03:51:47;;;;;;;4.85;2.20;;;12.00;53.40;;;;;;4941593;28;20420;-47
2022/05/29 03:54:14;;;;;;;4.82;1.80;;;12.00;53.40;;;;;;4942191;28;20067;-48
2022/05/29 03:56:42;;;;;;;4.07;1.60;;;12.00;53.40;;;;;;4943564;28;20066;-46
2022/05/29 03:59:09;;;;;;;9.82;1.90;;;12.00;53.40;;;;;;4941739;28;20081;-49
2022/05/29 04:01:38;;;;;;;7.25;1.70;;;12.00;54.00;;;;;;4942952;28;20066;-47
2022/05/29 04:04:06;;;;;;;6.28;2.10;;;12.00;53.60;;;;;;4940761;28;20843;-50
2022/05/29 04:06:36;;;;;;;5.88;1.77;;;12.00;53.60;;;;;;4941326;28;20084;-49
2022/05/29 04:12:07;;;;;;;5.80;1.67;;;12.10;53.80;;;;;;4949355;28;20058;-49
2022/05/29 04:14:37;;;;;;;8.60;2.40;;;12.10;53.80;;;;;;4941560;28;20415;-48
2022/05/29 04:17:05;;;;;;;12.10;2.45;;;12.10;54.10;;;;;;4936150;28;20061;-49
2022/05/29 04:19:32;;;;;;;7.97;1.77;;;12.10;54.40;;;;;;4938822;28;20055;-49
2022/05/29 04:22:00;;;;;;;6.00;1.77;;;12.10;54.50;;;;;;4941624;28;20054;-48
2022/05/29 04:24:29;;;;;;;6.18;1.92;;;12.10;54.70;;;;;;4940091;28;20054;-46
2022/05/29 04:26:56;;;;;;;8.43;2.10;;;12.10;54.60;;;;;;4942462;28;20066;-49
2022/05/29 04:29:24;;;;;;;9.77;1.83;;;12.10;54.70;;;;;;4939603;28;20055;-50
2022/05/29 04:34:36;;;;;;;8.70;2.03;;;12.10;54.80;;;;;;4945402;28;20058;-52
2022/05/29 04:37:04;;;;;;;7.90;1.80;;;12.10;54.90;;;;;;4942783;28;20066;-50
2022/05/29 04:39:35;;;;;;;6.60;1.77;;;12.00;54.90;;;;;;4942465;28;20051;-49
2022/05/29 04:42:03;;;;;;;10.40;2.42;;;12.00;54.90;;;;;;4940930;28;20055;-49
2022/05/29 04:44:31;;;;;;;7.25;2.10;;;12.00;54.80;;;;;;4939649;28;20062;-48
2022/05/29 04:46:59;;;;;;;7.28;1.88;;;12.00;55.10;;;;;;4941113;28;20500;-49
2022/05/29 04:49:27;;;;;;;6.65;1.73;;;12.10;55.10;;;;;;4941934;28;20059;-51
2022/05/29 04:51:54;;;;;;;10.85;2.35;;;12.10;55.20;;;;;;4942856;28;20064;-50
2022/05/29 04:54:22;;;;;;;10.63;2.22;;;12.10;55.20;;;;;;4941792;28;20059;-46
2022/05/29 04:56:51;;;;;;;8.35;2.33;;;12.10;55.20;;;;;;4941416;28;20059;-49
2022/05/29 04:59:18;;;;;;;5.70;1.67;;;12.20;55.20;;;;;;4937539;28;20408;-47
2022/05/29 05:01:46;;;;;;;9.82;3.08;;;12.20;55.20;;;;;;4937515;28;20523;-50
2022/05/29 05:04:13;;;;;;;16.92;2.28;;;12.30;55.20;;;;;;4938000;28;20071;-48
2022/05/29 05:06:41;;;;;;;7.53;2.00;;;12.30;55.30;;;;;;4942185;28;20062;-52
2022/05/29 05:09:08;;;;;;;7.00;2.10;;;12.30;55.30;;;;;;4940946;28;20056;-50
2022/05/29 05:11:35;;;;;;;6.05;2.20;;;12.40;55.30;;;;;;4943128;28;20059;-50
2022/05/29 05:14:04;;;;;;;12.40;2.38;;;12.40;55.40;;;;;;4940542;28;20055;-50
2022/05/29 05:16:32;;;;;;;8.77;2.33;;;12.40;55.50;;;;;;4942341;28;20055;-46
2022/05/29 05:18:59;;;;;;;6.50;2.30;;;12.40;55.40;;;;;;4939980;28;20059;-47
2022/05/29 05:21:27;;;;;;;12.07;2.65;;;12.40;55.30;;;;;;4942801;28;20075;-50
2022/05/29 05:23:54;;;;;;;13.90;3.00;;;12.50;55.40;;;;;;4939612;28;20531;-49
2022/05/29 05:26:22;;;;;;;11.27;2.65;;;12.40;55.50;;;;;;4942855;28;20054;-48
2022/05/29 05:28:49;;;;;;;9.55;2.47;;;12.40;55.60;;;;;;4944911;28;20062;-48
2022/05/29 05:31:18;;;;;;;9.48;2.38;;;12.50;55.60;;;;;;4944324;28;20074;-48
2022/05/29 05:33:46;;;;;;;9.00;2.80;;;12.50;55.60;;;;;;4945592;28;20555;-51
2022/05/29 05:36:15;;;;;;;8.45;2.97;;;12.50;55.70;;;;;;4944608;28;20051;-46
2022/05/29 05:38:42;;;;;;;7.90;2.47;;;12.50;55.80;;;;;;4941361;28;20514;-46
2022/05/29 05:41:11;;;;;;;5.97;2.72;;;12.50;55.90;;;;;;4943960;28;20423;-47
2022/05/29 05:43:39;;;;;;;9.52;2.80;;;12.60;55.90;;;;;;4939113;28;20459;-47
2022/05/29 05:46:07;;;;;;;9.57;2.92;;;12.60;56.00;;;;;;4944586;28;20986;-51
2022/05/29 05:48:38;;;;;;;10.32;3.58;;;12.60;56.10;;;;;;4942830;28;20066;-48
2022/05/29 05:51:05;;;;;;;12.45;3.70;;;12.60;56.00;;;;;;4941067;28;20059;-48
2022/05/29 05:53:33;;;;;;;12.55;4.00;;;12.70;55.90;;;;;;4945815;28;20062;-48
2022/05/29 05:56:05;;;;;;;10.48;3.42;;;12.70;56.60;;;;;;4942679;28;21002;-48
2022/05/29 05:58:32;;;;;;;13.40;4.22;;;12.80;56.20;;;;;;4942385;28;20058;-46
2022/05/29 06:01:06;;;;;;;9.68;3.28;;;12.80;56.20;;;;;;4940939;28;20610;-47
2022/05/29 06:03:35;;;;;;;15.30;3.72;;;12.90;56.20;;;;;;4943841;28;20052;-48
2022/05/29 06:06:03;;;;;;;9.07;3.28;;;12.90;56.00;;;;;;4941418;28;20440;-46
2022/05/29 06:08:30;;;;;;;13.43;4.03;;;13.00;55.80;;;;;;4942974;28;20055;-49
2022/05/29 06:10:58;;;;;;;14.82;6.40;;;13.00;55.60;;;;;;4940992;28;20070;-50
2022/05/29 06:13:27;;;;;;;12.98;5.03;;;13.00;55.60;;;;;;4943652;28;20051;-47
2022/05/29 06:15:54;;;;;;;15.82;5.38;;;13.10;55.50;;;;;;4941729;28;20055;-48
2022/05/29 06:18:21;;;;;;;12.10;5.38;;;13.10;55.70;;;;;;4942817;28;20062;-49
2022/05/29 06:20:57;;;;;;;17.45;5.80;;;13.20;55.90;;;;;;4942382;28;20066;-50
2022/05/29 06:23:25;;;;;;;17.52;8.30;;;13.20;55.80;;;;;;4944309;28;20051;-50
2022/05/29 06:25:52;;;;;;;16.08;6.88;;;13.30;55.60;;;;;;4942733;28;20051;-47
2022/05/29 06:28:19;;;;;;;17.80;7.32;;;13.40;55.20;;;;;;4942824;28;20047;-49
2022/05/29 06:30:47;;;;;;;15.32;7.10;;;13.40;55.20;;;;;;4941920;28;20051;-47
2022/05/29 06:33:14;;;;;;;18.83;7.53;;;13.40;55.00;;;;;;4945061;28;20051;-48
2022/05/29 06:35:43;;;;;;;16.10;7.57;;;13.40;55.10;;;;;;4944389;28;20415;-48
2022/05/29 06:38:11;;;;;;;14.63;7.85;;;13.50;55.00;;;;;;4943084;28;20059;-47
2022/05/29 06:40:42;;;;;;;15.35;6.47;;;13.40;55.10;;;;;;4943709;28;20074;-51
2022/05/29 06:43:11;;;;;;;19.13;7.38;;;13.40;55.10;;;;;;4944216;28;20055;-47
2022/05/29 06:45:39;;;;;;;21.20;6.95;;;13.40;55.60;;;;;;4943175;28;20066;-50
2022/05/29 06:48:07;;;;;;;17.25;7.32;;;13.40;55.30;;;;;;4940972;28;20596;-49
2022/05/29 06:50:34;;;;;;;14.13;6.40;;;13.40;55.00;;;;;;4942911;28;20074;-46
2022/05/29 06:53:02;;;;;;;11.25;5.78;;;13.50;54.90;;;;;;4944036;28;20066;-48
2022/05/29 06:55:31;;;;;;;17.38;5.15;;;13.50;54.80;;;;;;4940280;28;20047;-49
2022/05/29 06:57:58;;;;;;;17.67;5.93;;;13.50;54.90;;;;;;4942127;28;20055;-48
2022/05/29 07:08:43;;;;;;;20.17;5.53;;;13.40;55.50;;;;;;4948907;28;20058;-46
2022/05/29 07:11:15;;;;;;;24.20;7.22;;;13.20;54.50;;;;;;4943014;28;20055;-50
2022/05/29 07:13:43;;;;;;;10.95;5.03;;;13.10;55.00;;;;;;4941954;28;20055;-49
2022/05/29 07:16:10;;;;;;;15.68;6.70;;;13.10;54.90;;;;;;4943206;28;20055;-48
2022/05/29 07:18:38;;;;;;;11.90;5.80;;;13.00;55.40;;;;;;4941985;28;20415;-49
2022/05/29 07:21:06;;;;;;;10.52;4.30;;;13.00;55.60;;;;;;4943178;28;20062;-48
2022/05/29 07:23:35;;;;;;;14.52;4.90;;;13.10;55.60;;;;;;4942559;28;20066;-49
2022/05/29 07:26:03;;;;;;;11.82;3.17;;;13.10;55.60;;;;;;4944598;28;20055;-50
2022/05/29 07:28:32;;;;;;;8.10;2.78;;;13.10;54.90;;;;;;4939097;28;20051;-48
2022/05/29 07:30:59;;;;;;;9.98;3.65;;;13.10;54.20;;;;;;4943655;28;20059;-47
2022/05/29 07:33:27;;;;;;;12.65;3.67;;;13.20;54.20;;;;;;4942816;28;20062;-46
2022/05/29 07:35:54;;;;;;;11.02;3.80;;;13.20;54.90;;;;;;4943530;28;20051;-49
2022/05/29 07:38:22;;;;;;;9.68;3.35;;;13.30;54.40;;;;;;4937219;28;20059;-46
2022/05/29 07:40:50;;;;;;;16.20;2.83;;;13.30;54.00;;;;;;4939159;28;20058;-47
2022/05/29 07:43:19;;;;;;;9.75;2.70;;;13.40;54.40;;;;;;4938807;28;20438;-51
2022/05/29 07:45:48;;;;;;;9.65;2.60;;;13.40;55.20;;;;;;4941933;28;20062;-47
2022/05/29 07:48:16;;;;;;;8.50;2.10;;;13.50;54.00;;;;;;4938415;28;20973;-45
2022/05/29 07:50:44;;;;;;;5.13;2.28;;;13.60;53.60;;;;;;4936601;28;20733;-53
2022/05/29 07:53:12;;;;;;;10.18;2.55;;;13.60;52.20;;;;;;4936661;28;20062;-49
2022/05/29 07:55:39;;;;;;;9.95;2.47;;;13.60;51.70;;;;;;4937344;28;20054;-50
2022/05/29 07:58:08;;;;;;;7.15;2.70;;;13.70;51.90;;;;;;4936919;28;20055;-48
2022/05/29 08:00:36;;;;;;;6.60;2.42;;;13.60;52.00;;;;;;4938217;28;20078;-51
2022/05/29 08:03:07;;;;;;;6.70;2.03;;;13.70;52.40;;;;;;4943441;28;20051;-48
2022/05/29 08:05:36;;;;;;;7.70;2.20;;;13.70;52.60;;;;;;4937906;28;20511;-50
2022/05/29 08:08:08;;;;;;;8.10;2.10;;;13.70;52.40;;;;;;4939447;28;20051;-47
2022/05/29 08:10:37;;;;;;;15.23;2.78;;;13.70;52.70;;;;;;4941414;28;20598;-46
2022/05/29 08:13:05;;;;;;;8.55;2.05;;;13.60;52.50;;;;;;4942623;28;20051;-54
2022/05/29 08:15:32;;;;;;;6.50;1.80;;;13.60;52.40;;;;;;4938044;28;20059;-53
2022/05/29 08:18:00;;;;;;;12.52;2.50;;;13.60;52.30;;;;;;4939182;28;20043;-49
2022/05/29 08:20:29;;;;;;;8.32;3.03;;;13.60;52.40;;;;;;4936660;28;20059;-47
2022/05/29 08:22:57;;;;;;;9.52;3.00;;;13.50;53.20;;;;;;4940292;28;20062;-48
2022/05/29 08:30:54;;;;;;;;;;;13.70;53.50;;;;;;4947661;28;20062;-51
2022/05/29 08:33:24;;;;;;;14.90;3.47;;;13.70;53.10;;;;;;4942421;28;19922;-50
2022/05/29 08:35:56;;;;;;;6.45;2.92;;;13.70;52.80;;;;;;4937503;28;20055;-52
2022/05/29 08:38:24;;;;;;;9.90;2.63;;;13.70;53.10;;;;;;4935976;28;20429;-50
2022/05/29 08:40:56;;;;;;;7.28;2.55;;;13.70;53.10;;;;;;4939485;28;20047;-47
2022/05/29 08:43:29;;;;;;;6.72;2.45;;;13.70;53.40;;;;;;4942005;28;20058;-49
2022/05/29 08:45:59;;;;;;;7.95;2.40;;;13.70;53.30;;;;;;4941652;28;20431;-47
2022/05/29 08:48:27;;;;;;;6.45;1.98;;;13.70;53.00;;;;;;4939347;28;20488;-50
2022/05/29 08:51:30;;;;;;;8.43;1.80;;;13.70;52.90;;;;;;4943272;28;20526;-52
2022/05/29 08:54:09;;;;;;;5.55;1.30;;;13.60;52.10;;;;;;4939625;28;20051;-54
2022/05/29 08:56:44;;;;;;;4.28;1.25;;;13.60;52.60;;;;;;4940355;28;20047;-53
2022/05/29 08:59:21;;;;;;;5.10;1.55;;;13.60;52.20;;;;;;4937705;28;20535;-50
2022/05/29 09:02:01;;;;;;;2.88;1.50;;;13.60;52.50;;;;;;4937400;28;20055;-47
2022/05/29 09:04:33;;;;;;;9.10;1.50;;;13.60;52.70;;;;;;4943650;28;20066;-49
2022/05/29 09:07:06;;;;;;;4.78;1.73;;;13.60;52.80;;;;;;4943740;28;20054;-52
2022/05/29 09:09:38;;;;;;;7.68;1.85;;;13.60;52.40;;;;;;4939120;28;20089;-52
2022/05/29 09:12:10;;;;;;;6.07;1.52;;;13.60;51.90;;;;;;4941721;28;20412;-49
2022/05/29 09:14:44;;;;;;;4.15;1.67;;;13.70;52.20;;;;;;4941347;28;20058;-49
2022/05/29 09:17:14;;;;;;;5.78;2.05;;;13.80;52.60;;;;;;4944301;28;20054;-52
2022/05/29 09:19:47;;;;;;;5.60;1.58;;;13.80;53.20;;;;;;4942247;28;20055;-47
2022/05/29 09:22:22;;;;;;;5.28;2.13;;;13.90;53.60;;;;;;4946002;28;20526;-51
2022/05/29 09:25:01;;;;;;;4.80;1.83;;;14.00;53.00;;;;;;4943220;28;20059;-47
2022/05/29 09:27:30;;;;;;;6.07;2.17;;;14.20;52.80;;;;;;4940986;28;20059;-45
2022/05/29 09:29:57;;;;;;;7.72;2.80;;;14.30;52.30;;;;;;4941904;28;20427;-46
2022/05/29 09:32:28;;;;;;;7.45;1.92;;;14.40;52.00;;;;;;4942082;28;20066;-47
2022/05/29 09:35:01;;;;;;;6.63;2.85;;;14.40;51.50;;;;;;4943517;28;20066;-52
2022/05/29 09:37:39;;;;;;;5.43;3.10;;;14.50;50.70;;;;;;4944110;28;20055;-47
2022/05/29 09:40:13;;;;;;;5.55;2.78;;;14.60;51.40;;;;;;4944523;28;20058;-51
2022/05/29 09:42:42;;;;;;;4.18;2.75;;;14.70;51.30;;;;;;4945840;28;20491;-44
2022/05/29 09:45:15;;;;;;;8.10;3.00;;;14.80;51.20;;;;;;4938295;28;20051;-49
2022/05/29 09:50:43;;;;;;;4.50;2.80;;;15.00;50.10;;;;;;4947572;28;20054;-54
2022/05/29 09:53:15;;;;;;;4.15;2.30;;;15.00;49.60;;;;;;4941880;28;20059;-47
2022/05/29 09:55:51;;;;;;;5.90;1.85;;;15.10;49.60;;;;;;4944641;28;20051;-47
2022/05/29 09:58:27;;;;;;;4.88;1.95;;;15.10;49.80;;;;;;4943140;28;20055;-45
2022/05/29 10:01:02;;;;;;;5.80;2.25;;;15.10;49.60;;;;;;4942230;28;20089;-46
2022/05/29 10:03:38;;;;;;;3.33;1.75;;;15.10;49.80;;;;;;4942007;28;20058;-50
2022/05/29 10:06:12;;;;;;;5.78;2.63;;;15.20;49.80;;;;;;4943235;28;20399;-48
2022/05/29 10:08:43;;;;;;;3.70;2.20;;;15.30;48.90;;;;;;4941714;28;20056;-44
2022/05/29 10:11:19;;;;;;;4.65;1.73;;;15.40;49.10;;;;;;4945183;28;20051;-50
2022/05/29 10:13:48;;;;;;;2.65;1.88;;;15.40;49.50;;;;;;4944079;28;20055;-47
2022/05/29 10:16:35;;;;;;;3.65;2.10;;;15.50;48.90;;;;;;4938282;28;20063;-51
2022/05/29 10:19:04;;;;;;;4.10;2.00;;;15.60;48.30;;;;;;4941507;28;20051;-47
2022/05/29 10:21:43;;;;;;;6.40;2.10;;;15.70;48.50;;;;;;4945140;28;20051;-53
2022/05/29 10:24:22;;;;;;;4.30;2.15;;;15.70;48.70;;;;;;4941789;28;20082;-50
2022/05/29 10:26:52;;;;;;;3.83;1.83;;;15.70;48.10;;;;;;4945191;28;20051;-50
2022/05/29 10:29:27;;;;;;;6.95;2.60;;;15.70;48.30;;;;;;4941611;28;20055;-49
2022/05/29 10:31:55;;;;;;;5.60;2.08;;;15.70;48.20;;;;;;4944262;28;20058;-45
2022/05/29 10:34:26;;;;;;;2.88;1.77;;;15.70;48.10;;;;;;4941480;28;20062;-45
2022/05/29 10:36:56;;;;;;;4.57;1.58;;;15.60;47.80;;;;;;4944272;28;20055;-52
2022/05/29 10:39:28;;;;;;;3.78;1.90;;;15.70;48.10;;;;;;4944117;28;20051;-47
2022/05/29 10:41:58;;;;;;;4.85;2.00;;;15.70;48.60;;;;;;4945341;28;20059;-55
2022/05/29 10:44:43;;;;;;;5.25;1.55;;;15.70;48.30;;;;;;4942227;28;20066;-48
2022/05/29 10:47:24;;;;;;;5.63;2.28;;;15.80;48.20;;;;;;4942938;28;20065;-47
2022/05/29 10:50:04;;;;;;;3.00;1.80;;;15.80;48.70;;;;;;4941636;28;20063;-46
2022/05/29 10:52:57;;;;;;;4.10;1.80;;;15.90;49.20;;;;;;4941633;28;20515;-52
2022/05/29 10:55:40;;;;;;;5.55;1.33;;;16.00;48.40;;;;;;4944218;28;20051;-48
2022/05/29 10:58:32;;;;;;;2.22;1.40;;;16.00;46.50;;;;;;4942716;28;20066;-52
2022/05/29 11:03:17;;;;;;;2.80;1.20;;;16.00;46.30;;;;;;4943805;28;20055;-51
2022/05/29 11:04:08;;;;;;;5.13;1.60;;;16.00;46.80;;;;;;4937835;28;20055;-49
2022/05/29 11:06:52;;;;;;;3.97;1.60;;;15.90;47.00;;;;;;4944129;28;20415;-51
2022/05/29 11:09:43;;;;;;;5.03;1.40;;;15.80;46.40;;;;;;4940258;28;20492;-48
2022/05/29 11:12:22;;;;;;;4.70;1.67;;;15.70;47.10;;;;;;4940497;28;20061;-48
2022/05/29 11:15:10;;;;;;;5.38;1.63;;;15.60;47.50;;;;;;4944414;28;20065;-49
2022/05/29 11:17:47;;;;;;;11.45;1.55;;;15.40;48.10;;;;;;4944320;28;20051;-48
2022/05/29 11:20:31;;;;;;;3.30;1.48;;;15.20;48.70;;;;;;4942113;28;20070;-49
2022/05/29 11:23:16;;;;;;;6.03;2.10;;;15.00;49.80;;;;;;4943298;28;20059;-49
2022/05/29 11:25:54;;;;;;;3.53;1.80;;;14.90;50.50;;;;;;4942225;28;20059;-48
2022/05/29 11:28:52;;;;;;;6.30;2.30;;;14.90;50.90;;;;;;4942750;28;20510;-49
2022/05/29 11:31:39;;;;;;;4.32;1.80;;;14.80;51.40;;;;;;4931189;28;20069;-51
2022/05/29 11:34:22;;;;;;;4.72;1.90;;;14.80;52.10;;;;;;4942809;28;20066;-48
2022/05/29 11:37:03;;;;;;;4.72;2.15;;;14.80;52.00;;;;;;4943660;28;20078;-47
2022/05/29 11:39:38;;;;;;;3.65;1.80;;;14.90;52.10;;;;;;4943745;28;20063;-51
2022/05/29 11:42:14;;;;;;;2.90;1.70;;;14.90;52.40;;;;;;4941568;28;20055;-47
2022/05/29 11:44:51;;;;;;;5.70;1.85;;;15.00;52.90;;;;;;4941835;28;20052;-50
2022/05/29 11:53:20;;;;;;;2.53;1.70;;;15.40;52.30;;;;;;4942613;28;20055;-52
2022/05/29 11:55:49;;;;;;;6.50;1.90;;;15.60;52.10;;;;;;4943524;28;20062;-49
2022/05/29 11:58:21;;;;;;;2.40;1.73;;;15.70;52.00;;;;;;4940698;28;20062;-48
2022/05/29 12:00:57;;;;;;;6.32;2.00;;;15.80;51.30;;;;;;4941372;28;20062;-46
2022/05/29 12:03:36;;;;;;;6.32;1.83;;;15.90;50.90;;;;;;4942480;28;21003;-50
2022/05/29 12:06:10;;;;;;;2.33;1.63;;;16.10;50.90;;;;;;4943030;28;20074;-48
2022/05/29 12:08:47;;;;;;;4.75;2.38;;;16.20;50.60;;;;;;4937756;28;20062;-54
2022/05/29 12:11:29;;;;;;;4.13;2.33;;;16.30;51.00;;;;;;4938104;28;20063;-46
2022/05/29 12:14:04;;;;;;;4.40;2.75;;;16.30;49.20;;;;;;4929444;28;20059;-48
2022/05/29 12:16:35;;;;;;;8.65;3.30;;;16.40;49.50;;;;;;4939932;28;20055;-46
2022/05/29 12:19:09;;;;;;;10.40;3.53;;;16.40;49.60;;;;;;4935105;28;20507;-48
2022/05/29 12:21:41;;;;;;;6.93;3.63;;;16.30;49.30;;;;;;4938975;28;20063;-49
2022/05/29 12:24:12;;;;;;;10.95;3.47;;;16.30;49.50;;;;;;4940954;28;20055;-47
2022/05/29 12:26:45;;;;;;;7.72;3.70;;;16.20;49.90;;;;;;4943441;28;20070;-50
2022/05/29 12:29:19;;;;;;;7.78;3.45;;;16.20;50.10;;;;;;4934032;28;20059;-48
2022/05/29 12:31:54;;;;;;;12.30;4.35;;;16.10;50.00;;;;;;4930172;28;20059;-49
2022/05/29 12:34:27;;;;;;;6.88;4.13;;;16.00;49.70;;;;;;4940305;28;20416;-48
2022/05/29 12:37:28;;;;;;;10.48;4.78;;;16.00;50.30;;;;;;4943986;28;20063;-49
2022/05/29 12:40:43;;;;;;;7.53;4.32;;;16.00;51.70;;;;;;4945485;28;20059;-48
2022/05/29 12:43:29;;;;;;;11.57;4.20;;;16.00;51.00;;;;;;4918632;29;20063;-48
2022/05/29 12:46:07;;;;;;;9.32;4.00;;;16.00;50.20;;;;;;4941810;28;20531;-47
2022/05/29 12:49:13;;;;;;;6.13;3.45;;;16.00;49.90;;;;;;4945572;28;20059;-52
2022/05/29 12:52:08;;;;;;;14.50;3.85;;;16.00;48.90;;;;;;4944428;28;20051;-49
2022/05/29 12:54:52;;;;;;;7.93;4.35;;;16.00;48.70;;;;;;4930071;28;20411;-47
2022/05/29 12:57:46;;;;;;;9.10;3.10;;;15.90;49.10;;;;;;4933638;28;20114;-45
2022/05/29 13:00:51;;;;;;;3.77;2.30;;;15.70;50.90;;;;;;4930947;28;20066;-52
2022/05/29 13:04:01;;;;;;;6.95;2.60;;;15.50;51.90;;;;;;4931959;28;20055;-49
2022/05/29 13:07:02;;;;;;;4.25;2.63;;;15.10;53.00;;;;;;4941282;28;20059;-52
2022/05/29 13:10:09;;;;;;;4.78;2.42;;;14.70;53.50;;;;;;4942266;28;20051;-48
2022/05/29 13:12:42;;;;;;;6.82;2.72;;;14.50;55.30;;;;;;4944963;28;20126;-50
2022/05/29 13:15:13;;;;;;;4.30;2.53;;;14.20;55.50;;;;;;4942790;28;20427;-50
2022/05/29 13:17:42;;;;;;;5.88;2.53;;;14.10;56.10;;;;;;4943014;28;20636;-51
2022/05/29 13:20:14;;;;;;;6.40;2.90;;;14.00;56.60;;;;;;4941585;28;20487;-51
2022/05/29 13:22:57;;;;;;;6.38;3.00;;;14.00;57.20;;;;;;4943938;28;20051;-51
2022/05/29 13:25:27;;;;;;;5.53;3.10;;;13.90;58.20;;;;;;4943044;28;20086;-53
2022/05/29 13:27:57;;;;;;;4.63;2.65;;;13.90;57.90;;;;;;4943057;28;20062;-49
2022/05/29 13:31:09;;;;;;;4.70;2.10;;;13.90;57.60;;;;;;4929180;28;20071;-48
2022/05/29 13:33:46;;;;;;;5.13;2.60;;;13.90;57.80;;;;;;4929307;28;20059;-49
2022/05/29 13:37:06;;;;;;;3.33;1.30;;;14.00;59.00;;;;;;4943979;28;20078;-47
2022/05/29 13:40:06;;;;;;;1.73;1.48;;;14.00;57.90;;;;;;4940190;28;20590;-50
2022/05/29 13:42:43;;;;;;;3.47;1.70;;;14.10;57.20;;;;;;4946999;29;20411;-50
2022/05/29 13:45:54;;;;;;;5.47;1.42;;;14.20;56.20;;;;;;4946928;29;20503;-48
2022/05/29 13:48:24;;;;;;;3.22;1.63;;;14.30;55.50;;;;;;4943253;28;20071;-49